Terminal Aerodrome Forecast
Issued by NWS

Home | Current Version | Previous Version | Text Only | Print | Product List | Glossary On
Versions: 1 2 3 4 5 6 7 8 9 10 11 12 13 14 15 16 17 18 19 20 21 22 23 24 25 26 27 28 29
000
FTPQ31 PGUM 232000 RRA
TAFPQ
TAF

PGWT 232036Z 2321/2418 08010KT P6SM VCSH FEW025 SCT050
     FM240000 08011G20KT P6SM FEW025 SCT050
     FM240900 08010KT P6SM VCSH FEW025 SCT050=

USA.gov is the U.S. government's official web portal to all federal, state and local government web resources and services.